createdAt,value
2019-02-06T00:02:11.393Z,-5.03
2019-02-06T00:05:18.444Z,-5.08
2019-02-06T00:08:25.303Z,-5.14
2019-02-06T00:11:35.008Z,-5.04
2019-02-06T00:14:40.588Z,-5.03
2019-02-06T00:17:47.868Z,-5.16
2019-02-06T00:20:54.699Z,-5.11
2019-02-06T00:24:00.955Z,-5.03
2019-02-06T00:27:07.755Z,-5.15
2019-02-06T00:30:14.860Z,-5.30
2019-02-06T00:33:21.353Z,-5.33
2019-02-06T00:36:27.979Z,-5.32
2019-02-06T00:39:34.949Z,-5.35
2019-02-06T00:42:41.693Z,-5.43
2019-02-06T00:45:48.732Z,-5.44
2019-02-06T00:48:55.338Z,-5.46
2019-02-06T00:52:03.742Z,-5.49
2019-02-06T00:55:10.396Z,-5.41
2019-02-06T00:58:16.878Z,-5.46
2019-02-06T01:01:23.580Z,-5.51
2019-02-06T01:04:29.792Z,-5.51
2019-02-06T01:07:36.387Z,-5.55
2019-02-06T01:10:42.748Z,-5.54
2019-02-06T01:13:49.357Z,-5.59
2019-02-06T01:16:56.046Z,-5.58
2019-02-06T01:20:02.266Z,-5.59
2019-02-06T01:23:09.576Z,-5.57
2019-02-06T01:26:15.793Z,-5.56
2019-02-06T01:29:24.168Z,-5.40
2019-02-06T01:32:30.559Z,-5.45
2019-02-06T01:35:37.203Z,-5.40
2019-02-06T01:38:44.142Z,-5.50
2019-02-06T01:41:50.436Z,-5.51
2019-02-06T01:44:57.459Z,-5.51
2019-02-06T01:48:03.884Z,-5.67
2019-02-06T01:51:10.375Z,-5.63
2019-02-06T01:54:17.081Z,-5.66
2019-02-06T01:57:23.497Z,-5.57
2019-02-06T02:00:30.268Z,-5.59
2019-02-06T02:03:37.785Z,-5.72
2019-02-06T02:06:44.224Z,-5.75
2019-02-06T02:09:50.959Z,-5.73
2019-02-06T02:12:57.471Z,-5.63
2019-02-06T02:16:04.049Z,-5.69
2019-02-06T02:19:10.418Z,-5.71
2019-02-06T02:22:16.948Z,-5.78
2019-02-06T02:25:24.065Z,-5.74
2019-02-06T02:28:30.626Z,-5.84
2019-02-06T02:31:37.619Z,-5.81
2019-02-06T02:34:44.053Z,-5.88
2019-02-06T02:37:51.685Z,-5.83
2019-02-06T02:40:59.267Z,-5.82
2019-02-06T02:44:05.775Z,-5.88
2019-02-06T02:47:13.033Z,-5.88
2019-02-06T02:50:19.670Z,-5.95
2019-02-06T02:53:26.365Z,-5.98
2019-02-06T02:56:32.996Z,-6.01
2019-02-06T02:59:39.951Z,-5.94
2019-02-06T03:02:55.216Z,-5.98
2019-02-06T03:06:01.754Z,-6.05
2019-02-06T03:09:12.539Z,-5.95
2019-02-06T03:12:20.203Z,-6.06
2019-02-06T03:15:28.919Z,-6.02
2019-02-06T03:18:35.485Z,-6.20
2019-02-06T03:21:42.731Z,-6.11
2019-02-06T03:24:48.817Z,-6.16
2019-02-06T03:27:55.186Z,-6.18
2019-02-06T03:31:01.723Z,-6.10
2019-02-06T03:34:08.022Z,-6.11
2019-02-06T03:37:14.799Z,-6.09
2019-02-06T03:40:21.363Z,-6.07
2019-02-06T03:43:27.864Z,-6.10
2019-02-06T03:46:35.362Z,-6.15
2019-02-06T03:49:42.801Z,-6.28
2019-02-06T03:52:50.172Z,-6.26
2019-02-06T03:55:56.646Z,-6.28
2019-02-06T03:59:03.302Z,-6.34
2019-02-06T04:02:10.259Z,-6.27
2019-02-06T04:05:16.779Z,-6.37
2019-02-06T04:08:23.236Z,-6.36
2019-02-06T04:11:29.918Z,-6.35
2019-02-06T04:14:36.325Z,-6.35
2019-02-06T04:17:42.904Z,-6.37
2019-02-06T04:20:49.335Z,-6.30
2019-02-06T04:23:56.610Z,-6.33
2019-02-06T04:27:03.465Z,-6.20
2019-02-06T04:30:11.122Z,-6.22
2019-02-06T04:33:17.338Z,-6.29
2019-02-06T04:36:23.908Z,-6.28
2019-02-06T04:39:30.448Z,-6.18
2019-02-06T04:42:37.313Z,-6.17
2019-02-06T04:45:44.568Z,-6.15
2019-02-06T04:48:51.015Z,-6.15
2019-02-06T04:51:57.651Z,-6.03
2019-02-06T04:55:04.456Z,-6.04
2019-02-06T04:58:11.009Z,-5.98
2019-02-06T05:01:17.397Z,-6.00
2019-02-06T05:04:23.802Z,-5.95
2019-02-06T05:07:30.214Z,-6.01
2019-02-06T05:10:36.554Z,-6.00
2019-02-06T05:13:43.692Z,-5.94
2019-02-06T05:16:50.352Z,-5.88
2019-02-06T05:19:57.647Z,-5.91
2019-02-06T05:23:04.205Z,-5.84
2019-02-06T05:26:11.327Z,-5.81
2019-02-06T05:29:18.076Z,-5.83
2019-02-06T05:32:24.646Z,-5.80
2019-02-06T05:35:32.304Z,-5.82
2019-02-06T05:38:38.443Z,-5.84
2019-02-06T05:41:44.944Z,-5.88
2019-02-06T05:44:51.575Z,-5.96
2019-02-06T05:47:59.088Z,-5.87
2019-02-06T05:51:06.254Z,-5.92
2019-02-06T05:54:12.539Z,-5.91
2019-02-06T05:57:19.086Z,-5.94
2019-02-06T06:00:30.878Z,-5.81
2019-02-06T06:03:37.574Z,-5.95
2019-02-06T06:06:44.155Z,-5.87
2019-02-06T06:09:50.880Z,-5.85
2019-02-06T06:12:58.390Z,-5.86
2019-02-06T06:16:05.044Z,-5.73
2019-02-06T06:19:11.869Z,-5.76
2019-02-06T06:22:18.379Z,-5.73
2019-02-06T06:25:25.198Z,-5.67
2019-02-06T06:28:31.502Z,-5.71
2019-02-06T06:31:38.203Z,-5.73
2019-02-06T06:34:44.879Z,-5.72
2019-02-06T06:37:59.390Z,-5.71
2019-02-06T06:40:59.961Z,-5.69
2019-02-06T06:44:06.893Z,-5.55
2019-02-06T06:47:13.810Z,-5.56
2019-02-06T06:50:22.425Z,-5.52
2019-02-06T06:53:28.909Z,-5.46
2019-02-06T06:56:36.173Z,-5.51
2019-02-06T06:59:42.699Z,-5.48
2019-02-06T07:02:49.076Z,-5.43
2019-02-06T07:05:56.013Z,-5.42
2019-02-06T07:09:02.480Z,-5.33
2019-02-06T07:12:10.502Z,-5.17
2019-02-06T07:15:19.448Z,-5.07
2019-02-06T07:18:26.174Z,-4.92
2019-02-06T07:21:33.937Z,-4.82
2019-02-06T07:24:42.179Z,-4.80
2019-02-06T07:27:49.190Z,-4.76
2019-02-06T07:30:55.957Z,-4.73
2019-02-06T07:34:03.003Z,-4.65
2019-02-06T07:37:09.707Z,-4.60
2019-02-06T07:40:17.006Z,-4.50
2019-02-06T07:43:24.014Z,-4.36
2019-02-06T07:46:30.792Z,-4.28
2019-02-06T07:49:37.512Z,-4.28
2019-02-06T07:52:44.350Z,-4.08
2019-02-06T07:55:51.181Z,-3.90
2019-02-06T07:58:58.107Z,-3.73
2019-02-06T08:02:04.602Z,-3.59
2019-02-06T08:05:13.503Z,-3.48
2019-02-06T08:08:19.879Z,-3.42
2019-02-06T08:11:26.129Z,-3.30
2019-02-06T08:14:32.774Z,-3.19
2019-02-06T08:17:39.278Z,-3.13
2019-02-06T08:20:45.555Z,-3.02
2019-02-06T08:23:53.336Z,-2.90
2019-02-06T08:26:59.825Z,-2.83
2019-02-06T08:30:09.722Z,-2.64
2019-02-06T08:33:16.122Z,-2.51
2019-02-06T08:36:22.950Z,-2.39
2019-02-06T08:39:29.671Z,-2.23
2019-02-06T08:42:36.231Z,-2.06
2019-02-06T08:45:42.599Z,-1.96
2019-02-06T08:48:49.092Z,-1.83
2019-02-06T08:51:55.430Z,-1.68
2019-02-06T08:55:01.707Z,-1.52
2019-02-06T08:58:08.924Z,-1.54
2019-02-06T09:01:15.098Z,-1.30
2019-02-06T09:04:21.876Z,-1.10
2019-02-06T09:07:28.361Z,-0.88
2019-02-06T09:10:35.031Z,-0.78
2019-02-06T09:13:41.893Z,-0.56
2019-02-06T09:16:48.258Z,-0.61
2019-02-06T09:19:54.870Z,-0.40
2019-02-06T09:23:01.547Z,-0.34
2019-02-06T09:26:08.838Z,-0.32
2019-02-06T09:29:15.887Z,-0.17
2019-02-06T09:32:22.890Z,-0.03
2019-02-06T09:35:29.696Z,-0.11
2019-02-06T09:38:37.983Z,0.15
2019-02-06T09:41:45.204Z,0.21
2019-02-06T09:44:51.750Z,0.50
2019-02-06T09:47:58.114Z,0.85
2019-02-06T09:51:04.872Z,0.98
2019-02-06T09:54:12.379Z,1.10
2019-02-06T09:57:18.870Z,1.15
2019-02-06T10:00:31.218Z,1.44
2019-02-06T10:03:38.680Z,1.64
2019-02-06T10:06:45.532Z,1.68
2019-02-06T10:09:52.328Z,1.90
2019-02-06T10:13:00.304Z,2.22
2019-02-06T10:16:07.450Z,2.51
2019-02-06T10:19:14.191Z,2.76
2019-02-06T10:22:20.434Z,2.79
2019-02-06T10:25:27.031Z,2.94
2019-02-06T10:28:33.684Z,3.17
2019-02-06T10:31:40.028Z,3.47
2019-02-06T10:34:46.602Z,3.73
2019-02-06T10:37:53.388Z,3.89
2019-02-06T10:41:00.487Z,3.85
2019-02-06T10:44:07.740Z,4.05
2019-02-06T10:47:14.450Z,4.45
2019-02-06T10:50:23.105Z,4.44
2019-02-06T10:53:29.371Z,4.65
2019-02-06T10:56:37.076Z,4.83
2019-02-06T10:59:44.306Z,5.07
2019-02-06T11:02:51.667Z,5.35
2019-02-06T11:05:58.275Z,5.24
2019-02-06T11:09:07.050Z,5.19
2019-02-06T11:12:15.296Z,5.31
2019-02-06T11:15:22.486Z,5.56
2019-02-06T11:18:29.410Z,5.75
2019-02-06T11:21:38.540Z,5.90
2019-02-06T11:24:45.511Z,6.03
2019-02-06T11:27:52.139Z,6.06
2019-02-06T11:30:59.030Z,6.17
2019-02-06T11:34:06.032Z,6.14
2019-02-06T11:37:12.691Z,6.04
2019-02-06T11:40:21.633Z,6.09
2019-02-06T11:43:28.210Z,6.30
2019-02-06T11:46:35.342Z,6.28
2019-02-06T11:49:43.789Z,6.34
2019-02-06T11:52:50.416Z,6.37
2019-02-06T11:55:57.465Z,6.51
2019-02-06T11:59:04.302Z,6.52
2019-02-06T12:02:11.472Z,6.57
2019-02-06T12:05:18.327Z,6.48
2019-02-06T12:08:24.972Z,6.47
2019-02-06T12:11:31.443Z,6.72
2019-02-06T12:14:37.735Z,6.66
2019-02-06T12:17:44.575Z,6.51
2019-02-06T12:20:51.243Z,6.36
2019-02-06T12:23:57.675Z,6.54
2019-02-06T12:27:04.868Z,6.35
2019-02-06T12:30:18.748Z,6.46
2019-02-06T12:33:25.973Z,6.53
2019-02-06T12:36:32.911Z,6.52
2019-02-06T12:39:39.814Z,6.49
2019-02-06T12:42:46.275Z,6.54
2019-02-06T12:45:53.055Z,6.46
2019-02-06T12:49:00.023Z,6.27
2019-02-06T12:52:07.213Z,6.45
2019-02-06T12:55:19.618Z,6.52
2019-02-06T12:58:26.329Z,6.40
2019-02-06T13:01:36.546Z,6.42
2019-02-06T13:04:42.912Z,6.52
2019-02-06T13:07:50.847Z,6.36
2019-02-06T13:10:57.806Z,6.40
2019-02-06T13:14:04.932Z,6.51
2019-02-06T13:17:12.676Z,6.53
2019-02-06T13:20:24.269Z,6.36
2019-02-06T13:23:30.916Z,6.40
2019-02-06T13:26:38.287Z,6.45
2019-02-06T13:29:45.256Z,6.49
2019-02-06T13:32:51.732Z,6.61
2019-02-06T13:35:58.467Z,6.70
2019-02-06T13:39:08.020Z,6.80
2019-02-06T13:42:15.031Z,6.84
2019-02-06T13:45:24.252Z,6.90
2019-02-06T13:48:33.660Z,6.87
2019-02-06T13:51:39.414Z,6.87
2019-02-06T13:54:45.888Z,6.82
2019-02-06T13:57:52.492Z,6.83
2019-02-06T14:00:59.284Z,6.70
2019-02-06T14:04:05.923Z,6.62
2019-02-06T14:07:12.343Z,6.55
2019-02-06T14:10:22.673Z,6.38
2019-02-06T14:13:29.300Z,6.40
2019-02-06T14:16:36.252Z,6.46
2019-02-06T14:19:42.749Z,6.40
2019-02-06T14:23:01.628Z,6.40
2019-02-06T14:26:19.910Z,6.30
2019-02-06T14:30:02.066Z,6.22
2019-02-06T14:33:42.776Z,6.44
2019-02-06T14:37:27.583Z,6.48
2019-02-06T14:41:08.153Z,6.27
2019-02-06T14:44:58.803Z,6.06
2019-02-06T14:48:34.350Z,5.92
2019-02-06T14:52:11.498Z,5.95
2019-02-06T14:55:30.333Z,5.95
2019-02-06T14:59:16.546Z,5.71
2019-02-06T15:03:16.538Z,5.37
2019-02-06T15:07:01.487Z,5.25
2019-02-06T15:10:32.320Z,4.93
2019-02-06T15:14:32.378Z,4.91
2019-02-06T15:18:08.413Z,4.83
2019-02-06T15:21:50.329Z,4.59
2019-02-06T15:25:39.405Z,4.56
2019-02-06T15:29:41.810Z,4.24
2019-02-06T15:33:37.463Z,4.11
2019-02-06T15:37:24.385Z,3.70
2019-02-06T15:40:51.564Z,3.38
2019-02-06T15:44:24.512Z,2.74
2019-02-06T15:47:43.681Z,2.40
2019-02-06T15:51:46.738Z,2.34
2019-02-06T15:55:37.955Z,2.15
2019-02-06T15:59:09.133Z,1.68
2019-02-06T16:02:51.072Z,1.52
2019-02-06T16:06:32.427Z,1.39
2019-02-06T16:10:27.356Z,1.15
2019-02-06T16:13:57.975Z,0.83
2019-02-06T16:17:52.771Z,0.75
2019-02-06T16:21:38.775Z,0.59
2019-02-06T16:25:22.027Z,0.27
2019-02-06T16:29:03.818Z,0.11
2019-02-06T16:32:28.744Z,-0.11
2019-02-06T16:36:19.240Z,-0.32
2019-02-06T16:39:36.974Z,-0.44
2019-02-06T16:43:18.853Z,-0.55
2019-02-06T16:47:21.343Z,-0.79
2019-02-06T16:51:14.730Z,-0.90
2019-02-06T16:54:47.734Z,-1.02
2019-02-06T16:58:45.176Z,-1.11
2019-02-06T17:02:22.324Z,-1.11
2019-02-06T17:05:57.675Z,-1.25
2019-02-06T17:09:43.902Z,-1.39
2019-02-06T17:13:49.376Z,-1.41
2019-02-06T17:17:08.060Z,-1.58
2019-02-06T17:20:55.337Z,-1.61
2019-02-06T17:24:42.279Z,-1.69
2019-02-06T17:28:14.140Z,-1.72
2019-02-06T17:32:03.111Z,-1.82
2019-02-06T17:35:55.868Z,-1.80
2019-02-06T17:39:40.543Z,-1.87
2019-02-06T17:43:04.474Z,-1.99
2019-02-06T17:46:57.235Z,-2.03
2019-02-06T17:50:32.851Z,-2.03
2019-02-06T17:54:38.869Z,-2.14
2019-02-06T17:57:45.845Z,-2.15
2019-02-06T18:01:08.044Z,-2.22
2019-02-06T18:04:30.046Z,-2.23
2019-02-06T18:07:37.025Z,-2.21
2019-02-06T18:10:44.217Z,-2.20
2019-02-06T18:13:53.103Z,-2.24
2019-02-06T18:16:59.766Z,-2.26
2019-02-06T18:20:09.250Z,-2.27
2019-02-06T18:23:16.099Z,-2.21
2019-02-06T18:26:22.729Z,-2.35
2019-02-06T18:29:29.783Z,-2.39
2019-02-06T18:32:37.234Z,-2.45
2019-02-06T18:35:44.317Z,-2.52
2019-02-06T18:38:52.310Z,-2.43
2019-02-06T18:42:00.005Z,-2.52
2019-02-06T18:45:09.562Z,-2.53
2019-02-06T18:48:16.677Z,-2.61
2019-02-06T18:51:24.037Z,-2.60
2019-02-06T18:54:30.607Z,-2.68
2019-02-06T18:57:38.226Z,-2.70
2019-02-06T19:00:44.848Z,-2.78
2019-02-06T19:03:51.891Z,-2.83
2019-02-06T19:06:58.988Z,-2.90
2019-02-06T19:10:08.136Z,-2.97
2019-02-06T19:13:15.613Z,-2.93
2019-02-06T19:16:22.423Z,-3.02
2019-02-06T19:19:31.754Z,-3.13
2019-02-06T19:22:38.795Z,-3.23
2019-02-06T19:25:45.258Z,-3.23
2019-02-06T19:28:52.359Z,-3.30
2019-02-06T19:31:59.329Z,-3.30
2019-02-06T19:35:07.632Z,-3.38
2019-02-06T19:38:14.592Z,-3.40
2019-02-06T19:41:22.159Z,-3.47
2019-02-06T19:44:28.964Z,-3.46
2019-02-06T19:47:35.695Z,-3.55
2019-02-06T19:50:42.952Z,-3.52
2019-02-06T19:53:54.849Z,-3.60
2019-02-06T19:57:01.933Z,-3.66
2019-02-06T20:00:11.066Z,-3.65
2019-02-06T20:03:18.148Z,-3.74
2019-02-06T20:06:32.936Z,-3.78
2019-02-06T20:09:39.871Z,-3.83
2019-02-06T20:12:47.836Z,-3.76
2019-02-06T20:15:55.041Z,-3.88
2019-02-06T20:19:01.555Z,-3.95
2019-02-06T20:22:08.996Z,-3.88
2019-02-06T20:25:15.943Z,-3.94
2019-02-06T20:28:22.683Z,-3.90
2019-02-06T20:31:29.681Z,-3.84
2019-02-06T20:34:36.951Z,-3.85
2019-02-06T20:37:43.748Z,-3.92
2019-02-06T20:40:51.724Z,-3.91
2019-02-06T20:43:58.656Z,-4.08
2019-02-06T20:47:05.328Z,-4.10
2019-02-06T20:50:16.217Z,-4.14
2019-02-06T20:53:23.141Z,-4.17
2019-02-06T20:56:30.365Z,-4.09
2019-02-06T20:59:37.457Z,-4.18
2019-02-06T21:02:43.967Z,-4.19
2019-02-06T21:05:50.485Z,-4.20
2019-02-06T21:08:57.114Z,-4.26
2019-02-06T21:12:03.963Z,-4.22
2019-02-06T21:15:11.917Z,-4.27
2019-02-06T21:18:18.788Z,-4.29
2019-02-06T21:21:25.715Z,-4.23
2019-02-06T21:24:32.669Z,-4.23
2019-02-06T21:27:40.330Z,-4.21
2019-02-06T21:30:47.915Z,-4.25
2019-02-06T21:33:54.971Z,-4.29
2019-02-06T21:37:01.650Z,-4.22
2019-02-06T21:40:14.616Z,-4.36
2019-02-06T21:43:21.317Z,-4.38
2019-02-06T21:46:28.242Z,-4.44
2019-02-06T21:49:35.439Z,-4.39
2019-02-06T21:52:42.270Z,-4.40
2019-02-06T21:55:52.487Z,-4.42
2019-02-06T21:58:59.283Z,-4.55
2019-02-06T22:02:06.050Z,-4.58
2019-02-06T22:05:14.389Z,-4.62
2019-02-06T22:08:22.207Z,-4.51
2019-02-06T22:11:28.939Z,-4.58
2019-02-06T22:14:35.440Z,-4.64
2019-02-06T22:17:43.957Z,-4.58
2019-02-06T22:20:52.955Z,-4.52
2019-02-06T22:23:59.318Z,-4.62
2019-02-06T22:27:05.717Z,-4.69
2019-02-06T22:30:24.668Z,-4.67
2019-02-06T22:33:31.560Z,-4.63
2019-02-06T22:36:38.712Z,-4.71
2019-02-06T22:39:45.396Z,-4.73
2019-02-06T22:42:52.352Z,-4.67
2019-02-06T22:45:59.441Z,-4.62
2019-02-06T22:49:06.507Z,-4.58
2019-02-06T22:52:12.786Z,-4.47
2019-02-06T22:55:19.196Z,-4.49
2019-02-06T22:58:25.870Z,-4.47
2019-02-06T23:01:43.831Z,-4.44
2019-02-06T23:04:50.451Z,-4.51
2019-02-06T23:07:57.893Z,-4.29
2019-02-06T23:11:04.716Z,-4.10
2019-02-06T23:14:17.519Z,-4.07
2019-02-06T23:17:20.041Z,-3.56
2019-02-06T23:20:28.863Z,-3.46
2019-02-06T23:23:35.347Z,-3.37
2019-02-06T23:26:41.715Z,-2.71
2019-02-06T23:29:48.255Z,-2.26
2019-02-06T23:32:54.884Z,-0.51
2019-02-06T23:36:01.386Z,-0.04
2019-02-06T23:39:15.676Z,0.11
2019-02-06T23:42:22.220Z,-0.09
2019-02-06T23:45:28.771Z,-0.17
2019-02-06T23:48:35.705Z,-0.19
2019-02-06T23:51:42.336Z,-0.03
2019-02-06T23:54:49.308Z,0.66
2019-02-06T23:57:56.529Z,0.48
